Springvale, Australia
Current Conditions -  °F | °C
As of 4:00 AM on Sunday 26 Oct 2014 (Local Time) from YMEN Reporting Station
Overcast Overcast  
Wind Chill: 57°   Ceiling: 1700
Heat Index: 57°   Visibility: 6mi
Dew Point: 50°   Wind: 9mph
Humidity: 77%   Direction: 190°S
Pressure: 29.91"   Gusts: NA
Location:  37.95°S, 145.15°E
Report Text: YMEN 251700Z AUTO 19008KT 9999 // OVC017 14/10 Q1013
Loading
Personal Weather Stations






























Interactive Weather Map
Tropical Storm Tracking
New forecast layout! Learn more

10-Day Weather Forecast

Advertisements
Track Severe Weather on mobile